Terminal Aerodrome Forecast
Issued by NWS Bismarck, ND

Home | Current Version | Previous Version | Text Only | Print | Product List | Glossary On
Versions: 1 2 3 4 5 6 7 8 9 10 11 12 13 14 15 16 17 18
805
FTUS43 KBIS 292330
TAFISN
TAF
KISN 292330Z 3000/3024 33015KT P6SM SKC
     FM300300 34006KT P6SM SKC
     FM301600 34011KT P6SM SKC
     FM302300 02009KT P6SM SKC=

USA.gov is the U.S. government's official web portal to all federal, state and local government web resources and services.